Terminal Aerodrome Forecast
Issued by NWS

Current Version | Previous Version | Text Only | Print | Product List | Glossary On
Versions: 1 2 3 4 5 6 7 8 9 10 11 12 13 14 15 16 17 18 19 20 21
000 FTUS41 KBOX 161736 TAFACK TAF KACK 161736Z 1618/1718 35023KT P6SM SKC FM170000 02015KT P6SM SKC FM171400 05021KT P6SM SCT025=

USA.gov is the U.S. government's official web portal to all federal, state and local government web resources and services.